createdAt,value
2023-01-21T00:01:44.846Z,10.50
2023-01-21T00:04:16.192Z,11.40
2023-01-21T00:06:44.635Z,15.93
2023-01-21T00:09:13.079Z,16.17
2023-01-21T00:11:41.309Z,16.57
2023-01-21T00:14:09.516Z,16.17
2023-01-21T00:16:37.703Z,15.50
2023-01-21T00:19:07.252Z,16.30
2023-01-21T00:21:35.438Z,15.10
2023-01-21T00:24:03.628Z,15.47
2023-01-21T00:26:31.821Z,15.67
2023-01-21T00:29:06.002Z,16.47
2023-01-21T00:31:34.399Z,15.97
2023-01-21T00:34:02.856Z,16.10
2023-01-21T00:36:32.420Z,14.53
2023-01-21T00:39:00.986Z,15.10
2023-01-21T00:41:29.251Z,14.10
2023-01-21T00:44:01.656Z,14.27
2023-01-21T00:46:29.923Z,14.30
2023-01-21T00:48:58.112Z,14.23
2023-01-21T00:51:26.348Z,13.37
2023-01-21T00:53:55.903Z,13.57
2023-01-21T00:56:24.814Z,14.17
2023-01-21T00:58:53.114Z,15.10
2023-01-21T01:01:23.511Z,15.53
2023-01-21T01:03:52.003Z,16.90
2023-01-21T01:06:30.211Z,15.60
2023-01-21T01:09:00.201Z,15.53
2023-01-21T01:11:29.458Z,15.97
2023-01-21T01:13:59.508Z,14.93
2023-01-21T01:16:27.876Z,14.57
2023-01-21T01:18:57.542Z,15.77
2023-01-21T01:21:25.884Z,16.50
2023-01-21T01:23:54.774Z,18.23
2023-01-21T01:26:24.331Z,18.13
2023-01-21T01:28:52.981Z,19.97
2023-01-21T01:31:22.721Z,17.20
2023-01-21T01:33:50.983Z,17.90
2023-01-21T01:36:23.958Z,17.80
2023-01-21T01:38:53.020Z,17.50
2023-01-21T01:41:27.287Z,17.20
2023-01-21T01:43:59.623Z,16.53
2023-01-21T01:46:30.779Z,17.40
2023-01-21T01:49:06.521Z,14.93
2023-01-21T01:51:44.670Z,16.00
2023-01-21T01:54:17.481Z,16.33
2023-01-21T01:56:51.440Z,16.93
2023-01-21T01:59:20.559Z,16.23
2023-01-21T02:01:48.820Z,13.33
2023-01-21T02:04:22.496Z,14.43
2023-01-21T02:06:53.544Z,13.83
2023-01-21T02:09:22.076Z,16.10
2023-01-21T02:11:51.917Z,16.00
2023-01-21T02:14:20.121Z,16.67
2023-01-21T02:17:13.161Z,16.67
2023-01-21T02:20:19.101Z,14.80
2023-01-21T02:22:53.234Z,14.20
2023-01-21T02:25:57.757Z,13.60
2023-01-21T02:29:08.466Z,14.80
2023-01-21T02:32:02.010Z,15.40
2023-01-21T02:34:37.568Z,15.00
2023-01-21T02:37:12.350Z,13.63
2023-01-21T02:40:00.017Z,10.57
2023-01-21T02:42:40.030Z,11.77
2023-01-21T02:45:19.776Z,13.57
2023-01-21T02:47:54.937Z,13.37
2023-01-21T02:50:28.452Z,14.23
2023-01-21T02:52:58.561Z,13.63
2023-01-21T02:55:31.464Z,11.80
2023-01-21T02:58:02.941Z,11.60
2023-01-21T03:00:48.171Z,11.47
2023-01-21T03:04:09.223Z,11.57
2023-01-21T03:06:52.420Z,12.13
2023-01-21T03:09:24.828Z,12.53
2023-01-21T03:12:08.953Z,11.87
2023-01-21T03:14:58.829Z,13.07
2023-01-21T03:17:37.673Z,14.67
2023-01-21T03:20:12.417Z,14.57
2023-01-21T03:22:42.200Z,14.90
2023-01-21T03:25:13.112Z,15.00
2023-01-21T03:27:44.530Z,14.37
2023-01-21T03:30:18.039Z,14.27
2023-01-21T03:32:52.767Z,14.73
2023-01-21T03:35:27.192Z,13.93
2023-01-21T03:38:04.363Z,14.47
2023-01-21T03:40:37.302Z,14.00
2023-01-21T03:43:05.711Z,13.60
2023-01-21T03:45:39.411Z,13.87
2023-01-21T03:48:17.616Z,14.50
2023-01-21T03:50:53.250Z,13.07
2023-01-21T03:53:23.157Z,14.40
2023-01-21T03:55:52.481Z,13.13
2023-01-21T03:58:20.763Z,13.40
2023-01-21T04:00:49.547Z,14.33
2023-01-21T04:03:17.722Z,12.50
2023-01-21T04:05:45.915Z,14.47
2023-01-21T04:08:14.128Z,13.67
2023-01-21T04:10:43.755Z,14.87
2023-01-21T04:13:12.509Z,14.57
2023-01-21T04:15:40.705Z,12.50
2023-01-21T04:18:08.914Z,14.17
2023-01-21T04:20:37.113Z,14.03
2023-01-21T04:23:05.366Z,14.90
2023-01-21T04:25:33.585Z,14.70
2023-01-21T04:28:03.150Z,13.80
2023-01-21T04:30:31.445Z,15.27
2023-01-21T04:32:59.684Z,14.90
2023-01-21T04:35:27.914Z,13.93
2023-01-21T04:37:56.245Z,14.97
2023-01-21T04:40:24.507Z,14.73
2023-01-21T04:42:52.662Z,14.73
2023-01-21T04:45:22.313Z,14.37
2023-01-21T04:47:50.574Z,15.80
2023-01-21T04:50:19.640Z,15.43
2023-01-21T04:52:47.874Z,15.10
2023-01-21T04:55:16.262Z,15.90
2023-01-21T04:57:44.484Z,15.37
2023-01-21T05:00:14.078Z,15.57
2023-01-21T05:02:43.725Z,15.13
2023-01-21T05:05:14.592Z,15.40
2023-01-21T05:07:43.276Z,16.27
2023-01-21T05:10:17.001Z,16.10
2023-01-21T05:12:45.402Z,16.67
2023-01-21T05:15:13.702Z,17.20
2023-01-21T05:17:43.470Z,16.73
2023-01-21T05:20:12.972Z,15.20
2023-01-21T05:22:41.224Z,16.00
2023-01-21T05:25:10.065Z,16.67
2023-01-21T05:27:38.259Z,16.57
2023-01-21T05:30:08.335Z,18.40
2023-01-21T05:32:36.951Z,16.87
2023-01-21T05:35:07.312Z,16.67
2023-01-21T05:37:35.881Z,14.77
2023-01-21T05:40:04.401Z,14.80
2023-01-21T05:42:32.575Z,16.80
2023-01-21T05:45:01.471Z,16.63
2023-01-21T05:47:29.686Z,16.23
2023-01-21T05:49:57.883Z,16.97
2023-01-21T05:52:27.475Z,17.07
2023-01-21T05:55:01.950Z,17.37
2023-01-21T05:57:31.336Z,17.50
2023-01-21T05:59:59.995Z,16.17
2023-01-21T06:02:28.695Z,14.67
2023-01-21T06:04:56.935Z,15.03
2023-01-21T06:07:25.092Z,14.90
2023-01-21T06:09:54.698Z,17.00
2023-01-21T06:12:24.767Z,17.10
2023-01-21T06:14:53.111Z,16.20
2023-01-21T06:17:21.434Z,18.23
2023-01-21T06:19:49.637Z,17.60
2023-01-21T06:22:18.593Z,17.53
2023-01-21T06:24:46.934Z,19.87
2023-01-21T06:27:16.442Z,19.37
2023-01-21T06:29:44.925Z,19.30
2023-01-21T06:32:13.128Z,18.10
2023-01-21T06:34:41.307Z,16.73
2023-01-21T06:37:09.596Z,16.73
2023-01-21T06:39:38.782Z,16.27
2023-01-21T06:42:07.044Z,16.57
2023-01-21T06:44:36.603Z,16.53
2023-01-21T06:47:04.960Z,15.67
2023-01-21T06:49:33.214Z,17.20
2023-01-21T06:52:01.421Z,17.03
2023-01-21T06:54:30.605Z,15.27
2023-01-21T06:56:59.901Z,16.80
2023-01-21T06:59:28.150Z,14.23
2023-01-21T07:01:59.102Z,16.23
2023-01-21T07:04:30.178Z,17.17
2023-01-21T07:06:58.310Z,15.70
2023-01-21T07:09:26.576Z,14.43
2023-01-21T07:11:55.526Z,15.93
2023-01-21T07:14:23.747Z,15.37
2023-01-21T07:16:52.066Z,15.50
2023-01-21T07:19:21.606Z,14.90
2023-01-21T07:21:50.334Z,15.50
2023-01-21T07:24:18.542Z,14.17
2023-01-21T07:26:46.778Z,16.60
2023-01-21T07:29:15.228Z,15.63
2023-01-21T07:31:43.475Z,15.07
2023-01-21T07:34:11.901Z,15.47
2023-01-21T07:36:41.590Z,15.77
2023-01-21T07:39:10.184Z,15.83
2023-01-21T07:41:42.060Z,15.53
2023-01-21T07:44:13.390Z,16.17
2023-01-21T07:46:41.648Z,14.57
2023-01-21T07:49:12.860Z,15.20
2023-01-21T07:51:42.431Z,15.03
2023-01-21T07:54:12.062Z,18.73
2023-01-21T07:56:40.369Z,21.00
2023-01-21T07:59:09.143Z,19.43
2023-01-21T08:01:37.470Z,17.67
2023-01-21T08:04:07.060Z,18.43
2023-01-21T08:06:35.314Z,16.67
2023-01-21T08:09:05.537Z,16.00
2023-01-21T08:11:33.900Z,16.60
2023-01-21T08:14:02.132Z,17.60
2023-01-21T08:16:30.869Z,16.50
2023-01-21T08:18:59.078Z,16.60
2023-01-21T08:21:27.283Z,16.60
2023-01-21T08:23:55.474Z,18.20
2023-01-21T08:26:25.820Z,18.67
2023-01-21T08:28:55.448Z,14.87
2023-01-21T08:31:23.726Z,16.63
2023-01-21T08:33:51.983Z,15.20
2023-01-21T08:36:20.254Z,14.17
2023-01-21T08:38:48.875Z,16.07
2023-01-21T08:41:17.793Z,13.60
2023-01-21T08:43:47.363Z,15.27
2023-01-21T08:46:15.875Z,13.80
2023-01-21T08:48:44.144Z,14.20
2023-01-21T08:51:12.496Z,16.00
2023-01-21T08:53:40.776Z,15.63
2023-01-21T08:56:09.271Z,14.13
2023-01-21T08:58:37.521Z,14.43
2023-01-21T09:01:12.673Z,13.80
2023-01-21T09:03:40.957Z,13.73
2023-01-21T09:06:13.130Z,14.67
2023-01-21T09:08:42.158Z,13.27
2023-01-21T09:11:10.477Z,14.17
2023-01-21T09:13:40.740Z,14.13
2023-01-21T09:16:12.512Z,13.03
2023-01-21T09:18:41.048Z,14.37
2023-01-21T09:21:11.705Z,14.83
2023-01-21T09:23:41.593Z,12.30
2023-01-21T09:26:15.811Z,14.93
2023-01-21T09:28:46.388Z,13.50
2023-01-21T09:31:18.560Z,13.50
2023-01-21T09:33:49.439Z,13.27
2023-01-21T09:36:20.089Z,13.10
2023-01-21T09:38:50.638Z,13.07
2023-01-21T09:41:29.330Z,13.93
2023-01-21T09:44:08.807Z,13.60
2023-01-21T09:46:45.867Z,11.20
2023-01-21T09:49:20.657Z,14.07
2023-01-21T09:52:06.891Z,11.33
2023-01-21T09:54:37.460Z,11.97
2023-01-21T09:57:41.583Z,15.07
2023-01-21T10:00:34.954Z,13.77
2023-01-21T10:03:23.004Z,16.87
2023-01-21T10:06:23.148Z,13.53
2023-01-21T10:09:22.267Z,12.53
2023-01-21T10:12:07.282Z,11.73
2023-01-21T10:15:20.360Z,14.00
2023-01-21T10:17:57.268Z,12.73
2023-01-21T10:20:31.635Z,10.97
2023-01-21T10:23:06.445Z,13.00
2023-01-21T10:25:37.208Z,11.73
2023-01-21T10:28:14.160Z,12.93
2023-01-21T10:30:46.881Z,12.73
2023-01-21T10:33:19.705Z,12.00
2023-01-21T10:36:30.958Z,13.97
2023-01-21T10:39:06.733Z,13.93
2023-01-21T10:41:54.800Z,12.70
2023-01-21T10:44:29.649Z,12.77
2023-01-21T10:47:05.928Z,12.60
2023-01-21T10:49:49.284Z,12.90
2023-01-21T10:52:27.503Z,12.37
2023-01-21T10:55:06.491Z,13.53
2023-01-21T10:57:49.443Z,13.00
2023-01-21T11:00:23.737Z,12.50
2023-01-21T11:02:57.934Z,12.77
2023-01-21T11:05:27.450Z,13.37
2023-01-21T11:07:58.426Z,12.33
2023-01-21T11:10:28.378Z,14.07
2023-01-21T11:12:57.355Z,12.53
2023-01-21T11:15:32.099Z,10.93
2023-01-21T11:18:00.332Z,12.47
2023-01-21T11:20:36.916Z,13.00
2023-01-21T11:23:11.523Z,14.07
2023-01-21T11:25:42.216Z,11.93
2023-01-21T11:28:24.995Z,12.13
2023-01-21T11:31:08.551Z,11.93
2023-01-21T11:33:37.896Z,12.77
2023-01-21T11:36:16.184Z,13.30
2023-01-21T11:38:48.566Z,12.50
2023-01-21T11:41:21.678Z,13.07
2023-01-21T11:43:53.499Z,12.67
2023-01-21T11:46:31.789Z,12.03
2023-01-21T11:49:27.949Z,12.90
2023-01-21T11:52:19.581Z,12.17
2023-01-21T11:54:49.636Z,11.90
2023-01-21T11:57:30.920Z,12.73
2023-01-21T12:00:10.150Z,12.27
2023-01-21T12:02:46.319Z,11.83
2023-01-21T12:05:19.023Z,11.30
2023-01-21T12:07:51.025Z,12.83
2023-01-21T12:10:30.603Z,11.03
2023-01-21T12:13:18.790Z,11.77
2023-01-21T12:16:33.204Z,11.43
2023-01-21T12:19:26.763Z,11.43
2023-01-21T12:22:12.146Z,11.67
2023-01-21T12:24:58.153Z,11.33
2023-01-21T12:27:34.162Z,10.93
2023-01-21T12:30:17.928Z,11.43
2023-01-21T12:32:51.606Z,10.80
2023-01-21T12:35:29.495Z,11.37
2023-01-21T12:38:04.148Z,11.30
2023-01-21T12:40:35.970Z,10.00
2023-01-21T12:43:19.510Z,10.80
2023-01-21T12:45:53.276Z,10.63
2023-01-21T12:48:30.584Z,11.20
2023-01-21T12:51:05.072Z,9.53
2023-01-21T12:53:41.846Z,9.47
2023-01-21T12:56:22.363Z,9.67
2023-01-21T12:58:58.981Z,8.33
2023-01-21T13:01:45.666Z,8.07
2023-01-21T13:04:31.693Z,8.07
2023-01-21T13:07:06.566Z,6.80
2023-01-21T13:09:42.913Z,6.53
2023-01-21T13:12:17.067Z,6.17
2023-01-21T13:14:51.736Z,6.03
2023-01-21T13:17:23.999Z,7.33
2023-01-21T13:19:52.247Z,5.90
2023-01-21T13:22:36.616Z,6.30
2023-01-21T13:25:23.210Z,5.80
2023-01-21T13:28:01.633Z,6.37
2023-01-21T13:30:40.957Z,6.63
2023-01-21T13:33:32.260Z,7.40
2023-01-21T13:36:15.542Z,7.00
2023-01-21T13:38:51.106Z,8.43
2023-01-21T13:41:34.811Z,6.43
2023-01-21T13:44:46.686Z,6.97
2023-01-21T13:47:29.828Z,7.27
2023-01-21T13:50:17.447Z,6.20
2023-01-21T13:53:09.729Z,6.30
2023-01-21T13:55:54.571Z,6.43
2023-01-21T13:58:34.578Z,6.83
2023-01-21T14:01:07.966Z,6.23
2023-01-21T14:03:44.645Z,7.97
2023-01-21T14:06:22.090Z,8.87
2023-01-21T14:08:55.831Z,8.73
2023-01-21T14:11:30.966Z,8.17
2023-01-21T14:14:25.054Z,7.77
2023-01-21T14:17:43.297Z,8.03
2023-01-21T14:20:54.743Z,7.17
2023-01-21T14:23:50.298Z,6.93
2023-01-21T14:26:39.948Z,7.60
2023-01-21T14:29:18.651Z,7.70
2023-01-21T14:31:51.897Z,7.90
2023-01-21T14:34:24.874Z,8.67
2023-01-21T14:37:05.070Z,8.97
2023-01-21T14:39:52.661Z,6.77
2023-01-21T14:42:26.372Z,6.30
2023-01-21T14:45:06.327Z,6.70
2023-01-21T14:47:50.247Z,5.60
2023-01-21T14:50:53.503Z,6.30
2023-01-21T14:53:26.164Z,6.37
2023-01-21T14:56:20.232Z,6.83
2023-01-21T14:58:51.170Z,6.60
2023-01-21T15:01:41.341Z,6.87
2023-01-21T15:04:25.269Z,6.50
2023-01-21T15:06:58.148Z,6.17
2023-01-21T15:09:31.813Z,6.90
2023-01-21T15:12:02.707Z,7.37
2023-01-21T15:14:34.787Z,6.37
2023-01-21T15:17:03.108Z,7.57
2023-01-21T15:19:34.518Z,7.03
2023-01-21T15:22:40.782Z,6.93
2023-01-21T15:25:34.230Z,9.87
2023-01-21T15:28:43.834Z,8.90
2023-01-21T15:31:16.407Z,7.00
2023-01-21T15:33:50.453Z,6.67
2023-01-21T15:36:25.889Z,9.00
2023-01-21T15:39:00.747Z,6.97
2023-01-21T15:41:53.885Z,11.10
2023-01-21T15:44:37.556Z,7.77
2023-01-21T15:47:29.415Z,9.03
2023-01-21T15:50:06.680Z,11.10
2023-01-21T15:52:50.744Z,7.70
2023-01-21T15:55:37.390Z,7.40
2023-01-21T15:58:21.675Z,7.13
2023-01-21T16:01:00.776Z,7.07
2023-01-21T16:03:34.163Z,8.80
2023-01-21T16:06:09.090Z,7.13
2023-01-21T16:08:58.448Z,7.60
2023-01-21T16:11:56.761Z,7.50
2023-01-21T16:14:52.440Z,7.40
2023-01-21T16:17:31.316Z,7.27
2023-01-21T16:20:01.421Z,8.30
2023-01-21T16:22:35.026Z,7.17
2023-01-21T16:25:07.931Z,8.57
2023-01-21T16:27:36.294Z,7.93
2023-01-21T16:30:09.477Z,7.07
2023-01-21T16:32:38.034Z,7.90
2023-01-21T16:35:07.224Z,8.00
2023-01-21T16:37:35.785Z,8.73
2023-01-21T16:40:27.616Z,8.13
2023-01-21T16:43:12.954Z,8.00
2023-01-21T16:45:51.156Z,9.23
2023-01-21T16:48:24.720Z,7.97
2023-01-21T16:50:54.404Z,9.13
2023-01-21T16:53:25.225Z,8.07
2023-01-21T16:55:56.247Z,8.77
2023-01-21T16:58:29.560Z,8.50
2023-01-21T17:01:06.808Z,8.50
2023-01-21T17:03:35.215Z,9.07
2023-01-21T17:06:19.587Z,11.73
2023-01-21T17:08:51.842Z,14.03
2023-01-21T17:11:20.369Z,12.10
2023-01-21T17:13:50.055Z,11.37
2023-01-21T17:16:27.222Z,10.33
2023-01-21T17:18:59.375Z,10.07
2023-01-21T17:21:37.671Z,9.70
2023-01-21T17:24:16.327Z,18.47
2023-01-21T17:26:48.523Z,11.40
2023-01-21T17:29:21.913Z,10.13
2023-01-21T17:31:59.623Z,11.17
2023-01-21T17:34:30.180Z,9.60
2023-01-21T17:36:59.125Z,9.47
2023-01-21T17:40:00.959Z,7.57
2023-01-21T17:42:41.524Z,7.57
2023-01-21T17:45:20.729Z,7.17
2023-01-21T17:48:08.255Z,8.20
2023-01-21T17:50:38.319Z,7.47
2023-01-21T17:53:09.991Z,8.13
2023-01-21T17:55:40.187Z,7.33
2023-01-21T17:58:46.663Z,7.53
2023-01-21T18:01:16.157Z,8.10
2023-01-21T18:03:45.800Z,8.67
2023-01-21T18:06:21.226Z,8.63
2023-01-21T18:08:50.877Z,8.37
2023-01-21T18:11:19.712Z,7.07
2023-01-21T18:13:48.534Z,8.10
2023-01-21T18:16:17.032Z,7.90
2023-01-21T18:18:46.727Z,8.60
2023-01-21T18:21:20.519Z,8.17
2023-01-21T18:23:49.671Z,9.70
2023-01-21T18:26:30.314Z,8.83
2023-01-21T18:28:58.641Z,7.53
2023-01-21T18:31:27.146Z,8.30
2023-01-21T18:33:56.840Z,7.97
2023-01-21T18:36:25.027Z,7.90
2023-01-21T18:38:53.157Z,9.27
2023-01-21T18:41:21.432Z,9.07
2023-01-21T18:43:49.644Z,7.97
2023-01-21T18:46:19.812Z,8.87
2023-01-21T18:48:48.292Z,8.83
2023-01-21T18:51:18.109Z,8.57
2023-01-21T18:53:46.478Z,9.20
2023-01-21T18:56:15.773Z,10.17
2023-01-21T18:58:44.169Z,9.57
2023-01-21T19:01:22.981Z,10.10
2023-01-21T19:04:04.151Z,9.33
2023-01-21T19:06:33.831Z,9.90
2023-01-21T19:09:02.108Z,10.10
2023-01-21T19:11:30.358Z,8.33
2023-01-21T19:13:58.562Z,9.30
2023-01-21T19:16:26.916Z,9.47
2023-01-21T19:18:55.117Z,8.93
2023-01-21T19:21:23.299Z,9.43
2023-01-21T19:23:53.795Z,8.40
2023-01-21T19:26:22.749Z,8.43
2023-01-21T19:28:51.466Z,8.00
2023-01-21T19:31:19.787Z,8.83
2023-01-21T19:33:48.028Z,8.53
2023-01-21T19:36:20.468Z,8.13
2023-01-21T19:38:56.561Z,13.17
2023-01-21T19:41:25.577Z,7.80
2023-01-21T19:43:53.758Z,8.47
2023-01-21T19:46:23.856Z,8.77
2023-01-21T19:48:53.665Z,8.20
2023-01-21T19:51:22.003Z,8.83
2023-01-21T19:53:50.287Z,8.30
2023-01-21T19:56:24.815Z,7.77
2023-01-21T19:58:53.309Z,9.13
2023-01-21T20:01:21.515Z,9.33
2023-01-21T20:03:59.610Z,9.47
2023-01-21T20:06:31.892Z,8.43
2023-01-21T20:09:01.177Z,7.63
2023-01-21T20:11:31.001Z,8.53
2023-01-21T20:13:59.186Z,8.53
2023-01-21T20:16:27.601Z,8.57
2023-01-21T20:18:56.246Z,7.37
2023-01-21T20:21:24.591Z,8.20
2023-01-21T20:23:52.836Z,7.93
2023-01-21T20:26:27.130Z,8.60
2023-01-21T20:28:57.765Z,8.97
2023-01-21T20:31:26.015Z,8.27
2023-01-21T20:33:54.251Z,8.07
2023-01-21T20:36:25.249Z,7.90
2023-01-21T20:38:55.005Z,9.07
2023-01-21T20:41:23.669Z,8.27
2023-01-21T20:43:51.897Z,9.27
2023-01-21T20:46:23.766Z,9.70
2023-01-21T20:49:17.119Z,9.27
2023-01-21T20:51:45.652Z,9.47
2023-01-21T20:54:13.830Z,10.13
2023-01-21T20:56:42.097Z,7.57
2023-01-21T20:59:10.751Z,8.20
2023-01-21T21:02:04.358Z,9.07
2023-01-21T21:04:42.657Z,8.90
2023-01-21T21:07:16.682Z,8.87
2023-01-21T21:09:44.837Z,8.73
2023-01-21T21:12:13.028Z,7.40
2023-01-21T21:14:41.209Z,7.60
2023-01-21T21:17:13.179Z,7.53
2023-01-21T21:19:41.382Z,9.00
2023-01-21T21:22:09.594Z,8.50
2023-01-21T21:24:39.031Z,8.83
2023-01-21T21:27:07.280Z,7.80
2023-01-21T21:29:35.476Z,9.00
2023-01-21T21:32:04.616Z,8.67
2023-01-21T21:34:34.450Z,8.70
2023-01-21T21:37:02.674Z,8.00
2023-01-21T21:39:30.951Z,7.93
2023-01-21T21:42:16.711Z,9.00
2023-01-21T21:44:45.399Z,7.50
2023-01-21T21:47:30.859Z,8.43
2023-01-21T21:50:00.419Z,8.80
2023-01-21T21:52:31.491Z,9.60
2023-01-21T21:54:59.659Z,7.97
2023-01-21T21:57:27.855Z,8.03
2023-01-21T21:59:56.050Z,8.97
2023-01-21T22:02:24.202Z,8.00
2023-01-21T22:04:54.919Z,7.97
2023-01-21T22:07:24.683Z,7.70
2023-01-21T22:09:52.907Z,8.27
2023-01-21T22:12:21.083Z,8.33
2023-01-21T22:14:49.262Z,8.60
2023-01-21T22:17:17.491Z,8.10
2023-01-21T22:19:45.712Z,8.47
2023-01-21T22:22:13.890Z,8.53
2023-01-21T22:24:44.094Z,9.40
2023-01-21T22:27:13.152Z,9.20
2023-01-21T22:29:41.436Z,7.73
2023-01-21T22:32:10.051Z,8.53
2023-01-21T22:34:38.181Z,8.03
2023-01-21T22:37:06.572Z,7.67
2023-01-21T22:39:34.761Z,8.30
2023-01-21T22:42:05.082Z,8.90
2023-01-21T22:44:33.293Z,9.10
2023-01-21T22:47:04.055Z,8.00
2023-01-21T22:49:32.227Z,8.23
2023-01-21T22:52:00.438Z,8.57
2023-01-21T22:54:28.603Z,8.50
2023-01-21T22:56:56.852Z,8.10
2023-01-21T22:59:26.469Z,8.70
2023-01-21T23:01:54.591Z,9.13
2023-01-21T23:04:27.743Z,7.20
2023-01-21T23:06:55.952Z,8.00
2023-01-21T23:09:24.419Z,7.60
2023-01-21T23:11:53.285Z,7.90
2023-01-21T23:14:21.759Z,7.37
2023-01-21T23:16:53.615Z,7.30
2023-01-21T23:19:21.849Z,7.47
2023-01-21T23:21:50.006Z,7.10
2023-01-21T23:24:19.148Z,7.27
2023-01-21T23:26:47.428Z,7.33
2023-01-21T23:29:15.611Z,6.93
2023-01-21T23:31:43.997Z,6.70
2023-01-21T23:34:15.342Z,6.70
2023-01-21T23:36:43.575Z,7.93
2023-01-21T23:39:12.018Z,6.70
2023-01-21T23:41:40.199Z,7.40
2023-01-21T23:44:10.643Z,6.47
2023-01-21T23:46:39.057Z,7.40
2023-01-21T23:49:07.455Z,6.70
2023-01-21T23:51:37.035Z,7.10
2023-01-21T23:54:05.446Z,7.03
2023-01-21T23:56:33.738Z,8.13
2023-01-21T23:59:02.305Z,6.37
